Elbella — 9HA2358 — position and weather

sailwx.info

Track history (hours):
 
Tides and Currents Weather Stations Pressure Air Temp Water Temp Dewpoint Dewpoint Depression Visibility Wind Speed Wind Dir Waves Ship Positions

Elbella

Last reported at 2015-Sep-05 11:31 UTC. Time now 2015-Sep-05 12:23 UTC.
Position N 35°51' E 014°40'.

Length 176 m; draft 7.5 m.

Type: Ship (hazmat cat A). MMSI: 248422000.

Date/timePositionNaut miles runAvg speedWind from/ knotsBaromVisibWave heightAir tempDewpointWater temp
2015-Sep-05 11:31N 35°51' E 014°40'0 0.0
2015-Sep-05 10:31N 35°51' E 014°40'0 0.0
2015-Sep-05 09:31N 35°51' E 014°40'0 0.0
2015-Sep-05 08:25N 35°51' E 014°40'0 0.0
2015-Sep-05 07:31N 35°51' E 014°40'0 0.0
2015-Sep-05 06:31N 35°51' E 014°40'0 0.0
2015-Sep-05 05:31N 35°51' E 014°40'0 0.0
2015-Sep-05 04:28N 35°51' E 014°40'0 0.0
2015-Sep-05 03:31N 35°51' E 014°40'0 0.0
2015-Sep-05 02:31N 35°51' E 014°40'0 0.0
2015-Sep-05 01:28N 35°51' E 014°40'0 0.0
2015-Sep-05 00:31N 35°51' E 014°40'0 0.0
2015-Sep-04 23:33N 35°51' E 014°40'0 0.0
2015-Sep-04 22:33N 35°51' E 014°40'0 0.0
2015-Sep-04 21:33N 35°51' E 014°40'0 0.0
2015-Sep-04 20:33N 35°51' E 014°40'0 0.0
2015-Sep-04 19:33N 35°51' E 014°40'0 0.0
2015-Sep-04 18:33N 35°51' E 014°40'0 0.0
2015-Sep-04 17:33N 35°51' E 014°40'0 0.0
2015-Sep-04 16:33N 35°51' E 014°40'0 0.0
2015-Sep-04 15:33N 35°51' E 014°40'0 0.0
2015-Sep-04 14:33N 35°51' E 014°40'0 0.0
2015-Sep-04 13:33N 35°51' E 014°40'0 0.0
2015-Sep-04 12:33N 35°51' E 014°40'0 0.0
2015-Sep-04 11:33N 35°51' E 014°40'0 0.0
2015-Sep-04 10:33N 35°51' E 014°40'0 0.0
2015-Sep-04 09:33N 35°51' E 014°40'0 0.0
2015-Sep-04 08:33N 35°51' E 014°40'0 0.0
2015-Sep-04 07:33N 35°51' E 014°40'0 0.0
2015-Sep-04 06:33N 35°51' E 014°40'0 0.0
2015-Sep-04 05:33N 35°51' E 014°40'0 0.0
2015-Sep-04 04:33N 35°51' E 014°40'0 0.0
2015-Sep-04 03:33N 35°51' E 014°40'0 0.0
2015-Sep-04 02:33N 35°51' E 014°40'0 0.0
2015-Sep-04 01:33N 35°51' E 014°40'0 0.0
2015-Sep-04 00:33N 35°51' E 014°40'0 0.0
2015-Sep-03 23:33N 35°51' E 014°40'0 0.1
2015-Sep-03 22:33N 35°51' E 014°40'0 0.0
2015-Sep-03 21:33N 35°51' E 014°40'0 0.0
2015-Sep-03 20:33N 35°51' E 014°40'0 0.0
2015-Sep-03 19:33N 35°51' E 014°40'0 0.0
2015-Sep-03 18:33N 35°51' E 014°40'0 0.0
2015-Sep-03 17:33N 35°51' E 014°40'0 0.0
2015-Sep-03 16:33N 35°51' E 014°40'0 0.0
2015-Sep-03 15:33N 35°51' E 014°40'0 0.0
2015-Sep-03 14:33N 35°51' E 014°40'0 0.0
2015-Sep-03 13:33N 35°51' E 014°40'0 0.0
2015-Sep-03 12:33N 35°51' E 014°40'0 0.0
2015-Sep-03 11:33N 35°51' E 014°40'0 0.0
2015-Sep-03 10:33N 35°51' E 014°40'0 0.0
2015-Sep-03 09:33N 35°51' E 014°40'0 0.1
2015-Sep-03 08:33N 35°51' E 014°40'7 2.1
2015-Sep-03 05:25N 35°49' E 014°33'0 0.0
2015-Sep-03 04:33N 35°49' E 014°33'0 0.0
2015-Sep-03 03:27N 35°49' E 014°33'0 0.0
2015-Sep-03 02:31N 35°49' E 014°33'0 0.0
2015-Sep-03 01:31N 35°49' E 014°33'0 0.0
2015-Sep-03 00:25N 35°49' E 014°33'0 0.0
2015-Sep-02 23:18N 35°49' E 014°33'0 0.0
2015-Sep-02 16:07N 35°49' E 014°33'0 0.3
2015-Sep-02 15:33N 35°49' E 014°33'4 3.9
2015-Sep-02 14:33N 35°48' E 014°37'0 0.4
2015-Sep-02 13:32N 35°48' E 014°38'2 2.1
2015-Sep-02 12:33N 35°50' E 014°39'1 0.9
2015-Sep-02 11:32N 35°51' E 014°39'0 0.0
2015-Sep-02 10:32N 35°51' E 014°39'0 0.0
2015-Sep-02 09:32N 35°51' E 014°39'0 0.0
2015-Sep-02 08:32N 35°51' E 014°39'0 0.0
2015-Sep-02 07:32N 35°51' E 014°39'0 0.0
2015-Sep-02 06:32N 35°51' E 014°39'0 0.0
2015-Sep-02 05:32N 35°51' E 014°39'0 0.0
2015-Sep-02 04:32N 35°51' E 014°39'0 0.0
2015-Sep-02 03:32N 35°51' E 014°39'0 0.0
2015-Sep-02 02:29N 35°51' E 014°39'0 0.0
2015-Sep-02 01:32N 35°51' E 014°39'0 0.0
2015-Sep-02 00:32N 35°51' E 014°39'0 0.0
2015-Sep-01 23:32N 35°51' E 014°39'0 0.0
2015-Sep-01 22:32N 35°51' E 014°39'0 0.0
2015-Sep-01 21:32N 35°51' E 014°39'0 0.0
2015-Sep-01 20:32N 35°51' E 014°39'0 0.0
2015-Sep-01 19:32N 35°51' E 014°39'0 0.1
2015-Sep-01 18:32N 35°51' E 014°39'0 0.0
2015-Sep-01 17:32N 35°51' E 014°39'0 0.0
2015-Sep-01 16:32N 35°51' E 014°39'0 0.1
2015-Sep-01 15:32N 35°51' E 014°39'0 0.0
2015-Sep-01 14:32N 35°51' E 014°39'0 0.0
2015-Sep-01 13:29N 35°51' E 014°39'0 0.1
2015-Sep-01 11:32N 35°51' E 014°39'0 0.0
2015-Sep-01 09:05N 35°51' E 014°39'0 0.1
2015-Sep-01 08:26N 35°51' E 014°39'0 0.0
2015-Sep-01 07:29N 35°51' E 014°39'0 0.1
2015-Sep-01 06:33N 35°51' E 014°39'7 7.4
2015-Sep-01 05:33N 35°48' E 014°47'1110.9
2015-Sep-01 04:33N 35°48' E 015°01'1212.2
2015-Sep-01 03:33N 35°48' E 015°16'1212.0
2015-Sep-01 02:33N 35°48' E 015°31'1212.1
2015-Sep-01 01:33N 35°48' E 015°46'1211.9
2015-Sep-01 00:33N 35°47' E 016°00'1211.7
2015-Aug-31 23:33N 35°47' E 016°15'39111.8
2015-Aug-30 14:29N 35°53' E 024°17'1112.2
2015-Aug-30 13:33N 35°55' E 024°30'1212.3
2015-Aug-30 12:33N 35°57' E 024°45'1111.5
2015-Aug-30 11:33N 35°58' E 024°59'1111.4
2015-Aug-30 10:33N 35°60' E 025°13'1211.7
2015-Aug-30 09:33N 36°01' E 025°28'1212.0
2015-Aug-30 08:33N 36°03' E 025°42'1212.1
2015-Aug-30 07:33N 36°05' E 025°57'1211.9
2015-Aug-30 06:33N 36°07' E 026°12'1211.9
2015-Aug-30 05:33N 36°08' E 026°26'1211.8
2015-Aug-30 04:33N 36°05' E 026°41'1211.5
2015-Aug-30 03:32N 36°03' E 026°55'1211.7
2015-Aug-30 02:33N 36°01' E 027°09'1110.7
2015-Aug-30 01:33N 35°57' E 027°21'1110.9
2015-Aug-30 00:33N 35°52' E 027°33'1311.5
2015-Aug-29 23:24N 35°48' E 027°49'1112.1
2015-Aug-29 22:30N 35°49' E 028°02'179 3.7
2015-Aug-27 22:32N 35°23' E 031°40'5111.9
2015-Aug-27 18:15N 34°38' E 032°10'1011.8
2015-Aug-27 17:22N 34°28' E 032°15'1012.0
2015-Aug-27 16:32N 34°25' E 032°26'1212.2
2015-Aug-27 15:33N 34°23' E 032°41'1212.1
2015-Aug-27 14:33N 34°21' E 032°55'1212.0
2015-Aug-27 13:33N 34°18' E 033°09'  
Track history (hours):
 
Tides and Currents Weather Stations Pressure Air Temp Water Temp Dewpoint Dewpoint Depression Visibility Wind Speed Wind Dir Waves Ship Positions

Elbella

Last reported at 2015-Sep-05 11:31 UTC. Time now 2015-Sep-05 12:23 UTC.
Position N 35°51' E 014°40'.

Length 176 m; draft 7.5 m.

Type: Ship (hazmat cat A). MMSI: 248422000.

Date/timePositionNaut miles runAvg speedWind from/ knotsBaromVisibWave heightAir tempDewpointWater temp
2015-Sep-05 11:31N 35°51' E 014°40'0 0.0
2015-Sep-05 10:31N 35°51' E 014°40'0 0.0
2015-Sep-05 09:31N 35°51' E 014°40'0 0.0
2015-Sep-05 08:25N 35°51' E 014°40'0 0.0
2015-Sep-05 07:31N 35°51' E 014°40'0 0.0
2015-Sep-05 06:31N 35°51' E 014°40'0 0.0
2015-Sep-05 05:31N 35°51' E 014°40'0 0.0
2015-Sep-05 04:28N 35°51' E 014°40'0 0.0
2015-Sep-05 03:31N 35°51' E 014°40'0 0.0
2015-Sep-05 02:31N 35°51' E 014°40'0 0.0
2015-Sep-05 01:28N 35°51' E 014°40'0 0.0
2015-Sep-05 00:31N 35°51' E 014°40'0 0.0
2015-Sep-04 23:33N 35°51' E 014°40'0 0.0
2015-Sep-04 22:33N 35°51' E 014°40'0 0.0
2015-Sep-04 21:33N 35°51' E 014°40'0 0.0
2015-Sep-04 20:33N 35°51' E 014°40'0 0.0
2015-Sep-04 19:33N 35°51' E 014°40'0 0.0
2015-Sep-04 18:33N 35°51' E 014°40'0 0.0
2015-Sep-04 17:33N 35°51' E 014°40'0 0.0
2015-Sep-04 16:33N 35°51' E 014°40'0 0.0
2015-Sep-04 15:33N 35°51' E 014°40'0 0.0
2015-Sep-04 14:33N 35°51' E 014°40'0 0.0
2015-Sep-04 13:33N 35°51' E 014°40'0 0.0
2015-Sep-04 12:33N 35°51' E 014°40'0 0.0
2015-Sep-04 11:33N 35°51' E 014°40'0 0.0
2015-Sep-04 10:33N 35°51' E 014°40'0 0.0
2015-Sep-04 09:33N 35°51' E 014°40'0 0.0
2015-Sep-04 08:33N 35°51' E 014°40'0 0.0
2015-Sep-04 07:33N 35°51' E 014°40'0 0.0
2015-Sep-04 06:33N 35°51' E 014°40'0 0.0
2015-Sep-04 05:33N 35°51' E 014°40'0 0.0
2015-Sep-04 04:33N 35°51' E 014°40'0 0.0
2015-Sep-04 03:33N 35°51' E 014°40'0 0.0
2015-Sep-04 02:33N 35°51' E 014°40'0 0.0
2015-Sep-04 01:33N 35°51' E 014°40'0 0.0
2015-Sep-04 00:33N 35°51' E 014°40'0 0.0
2015-Sep-03 23:33N 35°51' E 014°40'0 0.1
2015-Sep-03 22:33N 35°51' E 014°40'0 0.0
2015-Sep-03 21:33N 35°51' E 014°40'0 0.0
2015-Sep-03 20:33N 35°51' E 014°40'0 0.0
2015-Sep-03 19:33N 35°51' E 014°40'0 0.0
2015-Sep-03 18:33N 35°51' E 014°40'0 0.0
2015-Sep-03 17:33N 35°51' E 014°40'0 0.0
2015-Sep-03 16:33N 35°51' E 014°40'0 0.0
2015-Sep-03 15:33N 35°51' E 014°40'0 0.0
2015-Sep-03 14:33N 35°51' E 014°40'0 0.0
2015-Sep-03 13:33N 35°51' E 014°40'0 0.0
2015-Sep-03 12:33N 35°51' E 014°40'0 0.0
2015-Sep-03 11:33N 35°51' E 014°40'0 0.0
2015-Sep-03 10:33N 35°51' E 014°40'0 0.0
2015-Sep-03 09:33N 35°51' E 014°40'0 0.1
2015-Sep-03 08:33N 35°51' E 014°40'7 2.1
2015-Sep-03 05:25N 35°49' E 014°33'0 0.0
2015-Sep-03 04:33N 35°49' E 014°33'0 0.0
2015-Sep-03 03:27N 35°49' E 014°33'0 0.0
2015-Sep-03 02:31N 35°49' E 014°33'0 0.0
2015-Sep-03 01:31N 35°49' E 014°33'0 0.0
2015-Sep-03 00:25N 35°49' E 014°33'0 0.0
2015-Sep-02 23:18N 35°49' E 014°33'0 0.0
2015-Sep-02 16:07N 35°49' E 014°33'0 0.3
2015-Sep-02 15:33N 35°49' E 014°33'4 3.9
2015-Sep-02 14:33N 35°48' E 014°37'0 0.4
2015-Sep-02 13:32N 35°48' E 014°38'2 2.1
2015-Sep-02 12:33N 35°50' E 014°39'1 0.9
2015-Sep-02 11:32N 35°51' E 014°39'0 0.0
2015-Sep-02 10:32N 35°51' E 014°39'0 0.0
2015-Sep-02 09:32N 35°51' E 014°39'0 0.0
2015-Sep-02 08:32N 35°51' E 014°39'0 0.0
2015-Sep-02 07:32N 35°51' E 014°39'0 0.0
2015-Sep-02 06:32N 35°51' E 014°39'0 0.0
2015-Sep-02 05:32N 35°51' E 014°39'0 0.0
2015-Sep-02 04:32N 35°51' E 014°39'0 0.0
2015-Sep-02 03:32N 35°51' E 014°39'0 0.0
2015-Sep-02 02:29N 35°51' E 014°39'0 0.0
2015-Sep-02 01:32N 35°51' E 014°39'0 0.0
2015-Sep-02 00:32N 35°51' E 014°39'0 0.0
2015-Sep-01 23:32N 35°51' E 014°39'0 0.0
2015-Sep-01 22:32N 35°51' E 014°39'0 0.0
2015-Sep-01 21:32N 35°51' E 014°39'0 0.0
2015-Sep-01 20:32N 35°51' E 014°39'0 0.0
2015-Sep-01 19:32N 35°51' E 014°39'0 0.1
2015-Sep-01 18:32N 35°51' E 014°39'0 0.0
2015-Sep-01 17:32N 35°51' E 014°39'0 0.0
2015-Sep-01 16:32N 35°51' E 014°39'0 0.1
2015-Sep-01 15:32N 35°51' E 014°39'0 0.0
2015-Sep-01 14:32N 35°51' E 014°39'0 0.0
2015-Sep-01 13:29N 35°51' E 014°39'0 0.1
2015-Sep-01 11:32N 35°51' E 014°39'0 0.0
2015-Sep-01 09:05N 35°51' E 014°39'0 0.1
2015-Sep-01 08:26N 35°51' E 014°39'0 0.0
2015-Sep-01 07:29N 35°51' E 014°39'0 0.1
2015-Sep-01 06:33N 35°51' E 014°39'7 7.4
2015-Sep-01 05:33N 35°48' E 014°47'1110.9
2015-Sep-01 04:33N 35°48' E 015°01'1212.2
2015-Sep-01 03:33N 35°48' E 015°16'1212.0
2015-Sep-01 02:33N 35°48' E 015°31'1212.1
2015-Sep-01 01:33N 35°48' E 015°46'1211.9
2015-Sep-01 00:33N 35°47' E 016°00'1211.7
2015-Aug-31 23:33N 35°47' E 016°15'39111.8
2015-Aug-30 14:29N 35°53' E 024°17'1112.2
2015-Aug-30 13:33N 35°55' E 024°30'1212.3
2015-Aug-30 12:33N 35°57' E 024°45'1111.5
2015-Aug-30 11:33N 35°58' E 024°59'1111.4
2015-Aug-30 10:33N 35°60' E 025°13'1211.7
2015-Aug-30 09:33N 36°01' E 025°28'1212.0
2015-Aug-30 08:33N 36°03' E 025°42'1212.1
2015-Aug-30 07:33N 36°05' E 025°57'1211.9
2015-Aug-30 06:33N 36°07' E 026°12'1211.9
2015-Aug-30 05:33N 36°08' E 026°26'1211.8
2015-Aug-30 04:33N 36°05' E 026°41'1211.5
2015-Aug-30 03:32N 36°03' E 026°55'1211.7
2015-Aug-30 02:33N 36°01' E 027°09'1110.7
2015-Aug-30 01:33N 35°57' E 027°21'1110.9
2015-Aug-30 00:33N 35°52' E 027°33'1311.5
2015-Aug-29 23:24N 35°48' E 027°49'1112.1
2015-Aug-29 22:30N 35°49' E 028°02'179 3.7
2015-Aug-27 22:32N 35°23' E 031°40'5111.9
2015-Aug-27 18:15N 34°38' E 032°10'1011.8
2015-Aug-27 17:22N 34°28' E 032°15'1012.0
2015-Aug-27 16:32N 34°25' E 032°26'1212.2
2015-Aug-27 15:33N 34°23' E 032°41'1212.1
2015-Aug-27 14:33N 34°21' E 032°55'1212.0
2015-Aug-27 13:33N 34°18' E 033°09'  

Dump ship's entire track history